createdAt,value
2023-04-11T00:02:06.386Z,4.20
2023-04-11T00:04:39.129Z,4.20
2023-04-11T00:07:09.296Z,4.10
2023-04-11T00:09:38.013Z,4.20
2023-04-11T00:12:07.210Z,4.20
2023-04-11T00:14:35.633Z,4.20
2023-04-11T00:17:04.048Z,4.20
2023-04-11T00:19:33.468Z,4.10
2023-04-11T00:22:02.904Z,3.90
2023-04-11T00:24:32.873Z,3.90
2023-04-11T00:27:01.460Z,4.00
2023-04-11T00:29:29.951Z,4.10
2023-04-11T00:31:58.466Z,4.10
2023-04-11T00:34:27.153Z,4.00
2023-04-11T00:36:56.008Z,3.90
2023-04-11T00:39:26.371Z,3.80
2023-04-11T00:42:04.905Z,3.70
2023-04-11T00:44:33.451Z,3.70
2023-04-11T00:47:03.853Z,3.60
2023-04-11T00:49:32.990Z,3.70
2023-04-11T00:52:01.716Z,3.70
2023-04-11T00:54:30.434Z,3.80
2023-04-11T00:57:01.077Z,3.70
2023-04-11T00:59:30.352Z,3.80
2023-04-11T01:01:59.595Z,3.80
2023-04-11T01:04:29.449Z,3.80
2023-04-11T01:07:01.864Z,3.80
2023-04-11T01:09:30.668Z,3.80
2023-04-11T01:12:01.456Z,3.60
2023-04-11T01:14:30.910Z,3.40
2023-04-11T01:17:02.174Z,3.50
2023-04-11T01:19:31.288Z,3.50
2023-04-11T01:22:01.753Z,3.50
2023-04-11T01:24:31.886Z,3.50
2023-04-11T01:27:01.800Z,3.50
2023-04-11T01:29:30.357Z,3.40
2023-04-11T01:31:58.790Z,3.30
2023-04-11T01:34:29.130Z,3.40
2023-04-11T01:36:57.604Z,3.40
2023-04-11T01:39:26.139Z,3.30
2023-04-11T01:41:57.053Z,3.40
2023-04-11T01:44:26.851Z,3.60
2023-04-11T01:46:55.353Z,3.60
2023-04-11T01:49:25.848Z,3.60
2023-04-11T01:51:54.304Z,3.70
2023-04-11T01:54:22.812Z,3.60
2023-04-11T01:56:52.352Z,3.60
2023-04-11T01:59:22.230Z,3.60
2023-04-11T02:01:50.834Z,3.50
2023-04-11T02:04:19.509Z,3.60
2023-04-11T02:06:48.176Z,3.60
2023-04-11T02:09:16.859Z,3.70
2023-04-11T02:11:45.279Z,3.60
2023-04-11T02:14:14.934Z,3.70
2023-04-11T02:16:55.430Z,3.70
2023-04-11T02:19:26.243Z,3.70
2023-04-11T02:21:54.969Z,3.70
2023-04-11T02:24:23.449Z,3.70
2023-04-11T02:26:51.874Z,3.60
2023-04-11T02:29:20.360Z,3.60
2023-04-11T02:31:49.962Z,3.60
2023-04-11T02:34:19.932Z,3.60
2023-04-11T02:36:49.041Z,3.70
2023-04-11T02:39:17.631Z,3.50
2023-04-11T02:41:46.133Z,3.40
2023-04-11T02:44:14.558Z,3.50
2023-04-11T02:46:45.708Z,3.60
2023-04-11T02:49:14.231Z,3.70
2023-04-11T02:51:44.029Z,3.70
2023-04-11T02:54:12.797Z,3.70
2023-04-11T02:56:41.322Z,3.70
2023-04-11T02:59:09.740Z,3.80
2023-04-11T03:01:38.923Z,3.70
2023-04-11T03:04:08.789Z,3.70
2023-04-11T03:06:37.758Z,3.50
2023-04-11T03:09:07.532Z,3.70
2023-04-11T03:11:35.975Z,3.70
2023-04-11T03:14:04.758Z,3.80
2023-04-11T03:16:33.638Z,3.80
2023-04-11T03:19:02.159Z,3.80
2023-04-11T03:21:31.584Z,3.60
2023-04-11T03:24:00.148Z,3.70
2023-04-11T03:26:29.986Z,3.80
2023-04-11T03:28:58.736Z,3.90
2023-04-11T03:31:27.519Z,3.90
2023-04-11T03:33:56.125Z,3.90
2023-04-11T03:36:26.579Z,3.90
2023-04-11T03:38:55.210Z,3.90
2023-04-11T03:41:23.853Z,3.90
2023-04-11T03:43:53.658Z,3.60
2023-04-11T03:46:22.226Z,3.40
2023-04-11T03:48:50.717Z,3.50
2023-04-11T03:51:19.164Z,3.50
2023-04-11T03:53:47.625Z,3.60
2023-04-11T03:56:16.083Z,3.70
2023-04-11T03:58:44.514Z,3.70
2023-04-11T04:01:14.301Z,3.80
2023-04-11T04:03:42.959Z,3.80
2023-04-11T04:06:11.623Z,3.90
2023-04-11T04:08:40.065Z,4.00
2023-04-11T04:11:08.663Z,4.00
2023-04-11T04:13:37.218Z,4.10
2023-04-11T04:16:06.370Z,4.10
2023-04-11T04:18:36.204Z,4.10
2023-04-11T04:21:07.175Z,4.20
2023-04-11T04:23:36.198Z,4.00
2023-04-11T04:26:05.034Z,4.10
2023-04-11T04:28:33.701Z,4.10
2023-04-11T04:31:02.207Z,4.10
2023-04-11T04:33:33.055Z,4.10
2023-04-11T04:36:04.384Z,4.20
2023-04-11T04:38:32.986Z,4.10
2023-04-11T04:41:01.620Z,4.10
2023-04-11T04:43:32.368Z,3.90
2023-04-11T04:46:01.099Z,3.90
2023-04-11T04:48:29.497Z,4.00
2023-04-11T04:50:57.913Z,4.00
2023-04-11T04:53:27.703Z,3.90
2023-04-11T04:55:56.416Z,3.90
2023-04-11T04:58:24.899Z,4.00
2023-04-11T05:00:55.859Z,4.10
2023-04-11T05:03:25.003Z,4.10
2023-04-11T05:05:53.604Z,4.20
2023-04-11T05:08:22.038Z,4.20
2023-04-11T05:10:51.839Z,4.20
2023-04-11T05:13:20.256Z,4.30
2023-04-11T05:15:49.241Z,4.30
2023-04-11T05:18:17.761Z,4.40
2023-04-11T05:20:46.216Z,4.50
2023-04-11T05:23:14.641Z,4.50
2023-04-11T05:25:43.140Z,4.50
2023-04-11T05:28:12.885Z,4.50
2023-04-11T05:30:41.354Z,4.50
2023-04-11T05:33:09.974Z,4.60
2023-04-11T05:35:38.524Z,4.60
2023-04-11T05:38:06.984Z,4.70
2023-04-11T05:40:36.279Z,4.80
2023-04-11T05:43:05.337Z,4.90
2023-04-11T05:45:35.644Z,5.00
2023-04-11T05:48:04.677Z,5.20
2023-04-11T05:50:33.285Z,5.50
2023-04-11T05:53:01.712Z,5.80
2023-04-11T05:55:30.608Z,5.90
2023-04-11T05:57:59.039Z,6.00
2023-04-11T06:00:31.038Z,6.00
2023-04-11T06:03:01.819Z,5.90
2023-04-11T06:05:31.562Z,6.00
2023-04-11T06:08:00.894Z,6.00
2023-04-11T06:10:29.621Z,6.00
2023-04-11T06:12:58.291Z,6.00
2023-04-11T06:15:27.728Z,6.00
2023-04-11T06:17:56.437Z,6.00
2023-04-11T06:20:26.421Z,6.00
2023-04-11T06:22:54.902Z,6.00
2023-04-11T06:25:24.514Z,6.00
2023-04-11T06:27:52.941Z,6.10
2023-04-11T06:30:21.463Z,6.10
2023-04-11T06:32:49.982Z,6.10
2023-04-11T06:35:20.395Z,6.20
2023-04-11T06:37:50.228Z,6.40
2023-04-11T06:40:20.053Z,6.50
2023-04-11T06:42:48.509Z,6.60
2023-04-11T06:45:16.989Z,6.70
2023-04-11T06:47:45.464Z,6.80
2023-04-11T06:50:14.116Z,6.80
2023-04-11T06:52:42.618Z,6.80
2023-04-11T06:55:15.389Z,6.90
2023-04-11T06:57:45.005Z,6.90
2023-04-11T07:00:14.460Z,7.00
2023-04-11T07:02:45.103Z,7.20
2023-04-11T07:05:13.863Z,7.40
2023-04-11T07:07:42.256Z,7.50
2023-04-11T07:10:12.376Z,7.50
2023-04-11T07:12:40.840Z,7.60
2023-04-11T07:15:10.906Z,7.80
2023-04-11T07:17:39.448Z,8.00
2023-04-11T07:20:09.986Z,8.10
2023-04-11T07:22:38.541Z,8.10
2023-04-11T07:25:07.663Z,8.20
2023-04-11T07:27:37.472Z,8.30
2023-04-11T07:30:07.108Z,8.40
2023-04-11T07:32:36.650Z,8.50
2023-04-11T07:35:05.409Z,8.50
2023-04-11T07:37:34.032Z,8.70
2023-04-11T07:40:06.624Z,8.80
2023-04-11T07:42:35.342Z,9.00
2023-04-11T07:45:05.834Z,9.10
2023-04-11T07:47:34.414Z,9.20
2023-04-11T07:50:03.150Z,9.20
2023-04-11T07:52:31.864Z,9.30
2023-04-11T07:55:00.647Z,9.40
2023-04-11T07:57:29.109Z,9.30
2023-04-11T07:59:59.964Z,9.40
2023-04-11T08:02:29.988Z,9.60
2023-04-11T08:04:58.661Z,9.70
2023-04-11T08:07:27.248Z,9.70
2023-04-11T08:09:55.881Z,9.80
2023-04-11T08:12:24.372Z,9.90
2023-04-11T08:14:53.065Z,9.80
2023-04-11T08:17:28.297Z,9.70
2023-04-11T08:20:02.087Z,9.70
2023-04-11T08:22:31.193Z,9.70
2023-04-11T08:24:59.635Z,9.70
2023-04-11T08:27:28.062Z,9.70
2023-04-11T08:29:58.419Z,9.80
2023-04-11T08:32:26.977Z,9.70
2023-04-11T08:34:55.586Z,9.70
2023-04-11T08:37:25.440Z,9.90
2023-04-11T08:39:53.843Z,10.00
2023-04-11T08:42:25.877Z,9.90
2023-04-11T08:44:55.610Z,9.80
2023-04-11T08:47:24.502Z,9.80
2023-04-11T08:49:53.334Z,9.90
2023-04-11T08:52:24.869Z,9.90
2023-04-11T08:54:55.935Z,9.90
2023-04-11T08:57:31.601Z,10.00
2023-04-11T09:00:08.368Z,10.00
2023-04-11T09:02:36.900Z,10.00
2023-04-11T09:05:05.927Z,10.00
2023-04-11T09:07:49.406Z,10.20
2023-04-11T09:10:23.443Z,10.30
2023-04-11T09:12:52.065Z,10.40
2023-04-11T09:15:21.637Z,10.50
2023-04-11T09:17:50.936Z,10.60
2023-04-11T09:20:20.575Z,10.70
2023-04-11T09:22:50.882Z,10.80
2023-04-11T09:25:21.254Z,10.70
2023-04-11T09:27:50.591Z,10.80
2023-04-11T09:30:23.601Z,10.80
2023-04-11T09:32:53.548Z,10.90
2023-04-11T09:35:24.877Z,10.90
2023-04-11T09:37:55.411Z,11.00
2023-04-11T09:40:26.770Z,11.10
2023-04-11T09:42:59.471Z,11.20
2023-04-11T09:45:30.827Z,11.30
2023-04-11T09:48:00.901Z,11.30
2023-04-11T09:50:29.740Z,11.30
2023-04-11T09:52:59.414Z,11.40
2023-04-11T09:55:29.375Z,11.40
2023-04-11T09:57:57.827Z,11.50
2023-04-11T10:00:29.405Z,11.50
2023-04-11T10:02:58.217Z,11.50
2023-04-11T10:05:28.109Z,11.50
2023-04-11T10:08:01.042Z,11.60
2023-04-11T10:10:31.180Z,11.70
2023-04-11T10:12:59.959Z,11.70
2023-04-11T10:15:29.040Z,11.80
2023-04-11T10:18:11.192Z,11.90
2023-04-11T10:20:44.833Z,11.90
2023-04-11T10:23:14.068Z,12.00
2023-04-11T10:25:55.279Z,12.10
2023-04-11T10:28:34.651Z,12.20
2023-04-11T10:31:05.038Z,12.40
2023-04-11T10:33:35.161Z,12.60
2023-04-11T10:36:06.423Z,12.70
2023-04-11T10:38:51.525Z,12.90
2023-04-11T10:41:31.338Z,13.00
2023-04-11T10:44:20.927Z,13.00
2023-04-11T10:46:51.953Z,13.20
2023-04-11T10:49:37.916Z,13.30
2023-04-11T10:52:20.876Z,13.50
2023-04-11T10:54:50.106Z,13.60
2023-04-11T10:57:20.099Z,13.60
2023-04-11T11:00:01.213Z,13.60
2023-04-11T11:02:40.095Z,13.60
2023-04-11T11:05:23.197Z,13.70
2023-04-11T11:07:53.552Z,13.80
2023-04-11T11:10:37.539Z,13.90
2023-04-11T11:13:07.482Z,14.20
2023-04-11T11:15:37.962Z,14.40
2023-04-11T11:18:08.183Z,14.60
2023-04-11T11:20:37.423Z,14.70
2023-04-11T11:23:06.971Z,14.80
2023-04-11T11:25:35.602Z,14.80
2023-04-11T11:28:06.165Z,14.80
2023-04-11T11:30:36.617Z,14.80
2023-04-11T11:33:20.699Z,14.70
2023-04-11T11:35:54.117Z,14.70
2023-04-11T11:38:23.630Z,14.70
2023-04-11T11:40:52.300Z,14.70
2023-04-11T11:43:20.920Z,14.70
2023-04-11T11:46:08.827Z,14.60
2023-04-11T11:48:37.785Z,14.60
2023-04-11T11:51:07.145Z,14.50
2023-04-11T11:53:35.876Z,14.50
2023-04-11T11:56:14.356Z,14.50
2023-04-11T11:58:46.134Z,14.60
2023-04-11T12:01:17.528Z,14.60
2023-04-11T12:03:51.462Z,14.70
2023-04-11T12:06:20.705Z,14.70
2023-04-11T12:08:53.834Z,14.80
2023-04-11T12:11:22.624Z,14.80
2023-04-11T12:13:54.364Z,14.90
2023-04-11T12:16:24.794Z,15.00
2023-04-11T12:18:53.380Z,15.10
2023-04-11T12:21:21.833Z,15.10
2023-04-11T12:23:50.302Z,15.20
2023-04-11T12:26:20.115Z,15.30
2023-04-11T12:28:49.358Z,15.30
2023-04-11T12:31:17.970Z,15.40
2023-04-11T12:33:47.806Z,15.40
2023-04-11T12:36:16.413Z,15.40
2023-04-11T12:38:44.871Z,15.40
2023-04-11T12:41:30.777Z,15.50
2023-04-11T12:44:02.137Z,15.60
2023-04-11T12:46:30.796Z,15.70
2023-04-11T12:49:00.820Z,15.80
2023-04-11T12:51:29.202Z,15.90
2023-04-11T12:53:57.667Z,15.90
2023-04-11T12:56:27.000Z,15.80
2023-04-11T12:58:55.587Z,15.90
2023-04-11T13:01:24.521Z,15.90
2023-04-11T13:03:53.109Z,16.00
2023-04-11T13:06:24.663Z,16.00
2023-04-11T13:08:53.217Z,16.10
2023-04-11T13:11:21.713Z,16.10
2023-04-11T13:13:50.557Z,16.10
2023-04-11T13:16:20.152Z,16.10
2023-04-11T13:18:49.164Z,16.10
2023-04-11T13:21:17.714Z,16.20
2023-04-11T13:23:47.593Z,16.20
2023-04-11T13:26:16.017Z,16.20
2023-04-11T13:28:44.411Z,16.30
2023-04-11T13:31:14.187Z,16.30
2023-04-11T13:33:44.848Z,16.30
2023-04-11T13:36:13.369Z,16.40
2023-04-11T13:38:41.816Z,16.50
2023-04-11T13:41:13.151Z,16.50
2023-04-11T13:43:42.392Z,16.60
2023-04-11T13:46:12.165Z,16.70
2023-04-11T13:48:40.676Z,16.80
2023-04-11T13:51:09.641Z,16.80
2023-04-11T13:53:38.162Z,16.70
2023-04-11T13:56:07.992Z,16.70
2023-04-11T13:58:38.207Z,16.70
2023-04-11T14:01:07.405Z,16.70
2023-04-11T14:03:36.070Z,16.60
2023-04-11T14:06:05.112Z,16.50
2023-04-11T14:08:33.541Z,16.50
2023-04-11T14:11:02.062Z,16.40
2023-04-11T14:13:30.502Z,16.30
2023-04-11T14:16:07.974Z,16.30
2023-04-11T14:18:37.521Z,16.30
2023-04-11T14:21:07.282Z,16.20
2023-04-11T14:23:35.871Z,16.20
2023-04-11T14:26:04.396Z,16.10
2023-04-11T14:28:33.708Z,16.10
2023-04-11T14:31:03.597Z,16.10
2023-04-11T14:33:32.281Z,16.10
2023-04-11T14:36:00.792Z,16.00
2023-04-11T14:38:29.283Z,16.00
2023-04-11T14:40:57.787Z,16.00
2023-04-11T14:43:26.584Z,15.90
2023-04-11T14:45:57.378Z,15.90
2023-04-11T14:48:28.758Z,15.90
2023-04-11T14:50:57.190Z,15.70
2023-04-11T14:53:26.554Z,15.60
2023-04-11T14:55:55.014Z,15.50
2023-04-11T14:58:23.446Z,15.30
2023-04-11T15:00:52.220Z,15.20
2023-04-11T15:03:20.869Z,15.10
2023-04-11T15:05:50.811Z,14.80
2023-04-11T15:08:19.222Z,14.70
2023-04-11T15:10:53.834Z,14.70
2023-04-11T15:13:22.993Z,14.60
2023-04-11T15:15:51.906Z,14.50
2023-04-11T15:18:22.479Z,14.40
2023-04-11T15:20:52.700Z,14.30
2023-04-11T15:23:21.599Z,14.10
2023-04-11T15:25:54.322Z,14.10
2023-04-11T15:28:22.832Z,14.00
2023-04-11T15:30:53.721Z,13.90
2023-04-11T15:33:24.334Z,13.90
2023-04-11T15:35:54.755Z,13.80
2023-04-11T15:38:23.330Z,13.70
2023-04-11T15:40:52.582Z,13.70
2023-04-11T15:43:21.419Z,13.60
2023-04-11T15:45:50.041Z,13.60
2023-04-11T15:48:18.582Z,13.50
2023-04-11T15:50:47.091Z,13.40
2023-04-11T15:53:16.920Z,13.40
2023-04-11T15:55:47.077Z,13.20
2023-04-11T15:58:15.602Z,13.10
2023-04-11T16:00:44.788Z,13.10
2023-04-11T16:03:13.379Z,12.90
2023-04-11T16:05:43.317Z,12.70
2023-04-11T16:08:11.948Z,12.70
2023-04-11T16:10:41.795Z,12.60
2023-04-11T16:13:10.717Z,12.60
2023-04-11T16:15:39.244Z,12.50
2023-04-11T16:18:07.784Z,12.50
2023-04-11T16:20:36.543Z,12.30
2023-04-11T16:23:05.005Z,12.30
2023-04-11T16:25:34.394Z,12.30
2023-04-11T16:28:04.352Z,12.30
2023-04-11T16:30:32.746Z,12.30
2023-04-11T16:33:01.325Z,12.30
2023-04-11T16:35:29.774Z,12.30
2023-04-11T16:37:58.508Z,12.40
2023-04-11T16:40:26.976Z,12.30
2023-04-11T16:42:55.424Z,12.20
2023-04-11T16:45:25.390Z,12.30
2023-04-11T16:47:53.951Z,12.30
2023-04-11T16:50:22.682Z,12.20
2023-04-11T16:52:51.078Z,12.20
2023-04-11T16:55:19.765Z,12.20
2023-04-11T16:57:48.203Z,12.20
2023-04-11T17:00:20.237Z,12.20
2023-04-11T17:02:50.190Z,12.30
2023-04-11T17:05:19.339Z,12.30
2023-04-11T17:07:47.842Z,12.30
2023-04-11T17:10:16.601Z,12.30
2023-04-11T17:12:45.070Z,12.30
2023-04-11T17:15:13.492Z,12.30
2023-04-11T17:17:41.980Z,12.30
2023-04-11T17:20:13.225Z,12.30
2023-04-11T17:22:44.320Z,12.30
2023-04-11T17:25:13.117Z,12.30
2023-04-11T17:27:41.784Z,12.20
2023-04-11T17:30:12.003Z,12.20
2023-04-11T17:32:40.457Z,12.10
2023-04-11T17:35:09.473Z,12.10
2023-04-11T17:37:39.711Z,12.10
2023-04-11T17:40:13.482Z,12.10
2023-04-11T17:42:42.257Z,12.10
2023-04-11T17:45:17.699Z,12.00
2023-04-11T17:47:47.520Z,11.90
2023-04-11T17:50:16.438Z,11.90
2023-04-11T17:52:47.481Z,11.90
2023-04-11T17:55:17.279Z,11.80
2023-04-11T17:57:46.020Z,11.70
2023-04-11T18:00:19.394Z,11.50
2023-04-11T18:02:49.190Z,11.40
2023-04-11T18:05:23.955Z,11.20
2023-04-11T18:07:56.460Z,11.10
2023-04-11T18:10:27.193Z,11.10
2023-04-11T18:12:57.429Z,11.00
2023-04-11T18:15:26.674Z,11.00
2023-04-11T18:17:55.284Z,10.80
2023-04-11T18:20:24.051Z,10.70
2023-04-11T18:22:56.119Z,10.70
2023-04-11T18:25:24.756Z,10.60
2023-04-11T18:27:53.252Z,10.50
2023-04-11T18:30:21.742Z,10.60
2023-04-11T18:32:52.255Z,10.50
2023-04-11T18:35:21.644Z,10.60
2023-04-11T18:37:50.096Z,10.60
2023-04-11T18:40:19.888Z,10.50
2023-04-11T18:42:50.469Z,10.50
2023-04-11T18:45:20.658Z,10.70
2023-04-11T18:47:49.407Z,10.70
2023-04-11T18:50:18.561Z,10.70
2023-04-11T18:52:50.680Z,10.70
2023-04-11T18:55:24.039Z,10.60
2023-04-11T18:57:56.127Z,10.40
2023-04-11T19:00:26.497Z,10.20
2023-04-11T19:02:55.163Z,10.30
2023-04-11T19:05:25.452Z,10.20
2023-04-11T19:07:54.191Z,10.00
2023-04-11T19:10:24.040Z,9.70
2023-04-11T19:12:52.465Z,9.30
2023-04-11T19:15:20.975Z,9.40
2023-04-11T19:17:49.629Z,9.40
2023-04-11T19:20:19.193Z,9.20
2023-04-11T19:22:47.935Z,9.20
2023-04-11T19:25:16.433Z,9.20
2023-04-11T19:27:47.101Z,9.20
2023-04-11T19:30:15.594Z,9.00
2023-04-11T19:32:46.026Z,8.70
2023-04-11T19:35:14.989Z,8.60
2023-04-11T19:37:43.429Z,8.50
2023-04-11T19:40:13.564Z,8.50
2023-04-11T19:42:43.091Z,8.30
2023-04-11T19:45:13.346Z,7.90
2023-04-11T19:47:42.059Z,7.90
2023-04-11T19:50:13.099Z,8.00
2023-04-11T19:52:42.565Z,7.90
2023-04-11T19:55:11.616Z,8.00
2023-04-11T19:57:40.911Z,8.00
2023-04-11T20:00:12.430Z,7.80
2023-04-11T20:02:48.123Z,7.70
2023-04-11T20:05:18.350Z,7.60
2023-04-11T20:07:47.785Z,7.70
2023-04-11T20:10:16.656Z,7.40
2023-04-11T20:12:45.127Z,7.40
2023-04-11T20:15:13.725Z,7.20
2023-04-11T20:17:45.778Z,7.30
2023-04-11T20:20:15.443Z,7.30
2023-04-11T20:22:45.785Z,7.10
2023-04-11T20:25:14.327Z,7.00
2023-04-11T20:27:44.976Z,6.80
2023-04-11T20:30:15.418Z,6.90
2023-04-11T20:32:45.664Z,7.00
2023-04-11T20:35:14.240Z,6.80
2023-04-11T20:37:44.005Z,6.70
2023-04-11T20:40:14.120Z,6.70
2023-04-11T20:42:45.422Z,6.60
2023-04-11T20:45:15.853Z,6.60
2023-04-11T20:47:47.584Z,6.60
2023-04-11T20:50:17.595Z,6.60
2023-04-11T20:52:47.952Z,6.40
2023-04-11T20:55:16.429Z,6.40
2023-04-11T20:57:45.731Z,6.40
2023-04-11T21:00:16.493Z,6.30
2023-04-11T21:02:50.110Z,6.20
2023-04-11T21:05:21.338Z,6.30
2023-04-11T21:07:50.117Z,6.20
2023-04-11T21:10:20.849Z,6.20
2023-04-11T21:12:51.736Z,6.10
2023-04-11T21:15:20.942Z,5.90
2023-04-11T21:17:52.300Z,6.10
2023-04-11T21:20:22.176Z,6.00
2023-04-11T21:22:52.858Z,6.00
2023-04-11T21:25:21.547Z,6.00
2023-04-11T21:27:50.284Z,6.10
2023-04-11T21:30:18.750Z,6.10
2023-04-11T21:32:47.183Z,6.10
2023-04-11T21:35:17.126Z,6.10
2023-04-11T21:37:47.723Z,6.30
2023-04-11T21:40:17.479Z,6.20
2023-04-11T21:42:46.226Z,6.10
2023-04-11T21:45:14.678Z,6.00
2023-04-11T21:47:43.105Z,6.00
2023-04-11T21:50:12.512Z,6.10
2023-04-11T21:52:43.414Z,6.30
2023-04-11T21:55:12.568Z,6.30
2023-04-11T21:57:41.113Z,6.30
2023-04-11T22:00:12.037Z,6.30
2023-04-11T22:02:40.821Z,6.30
2023-04-11T22:05:09.897Z,6.30
2023-04-11T22:07:47.415Z,6.10
2023-04-11T22:10:23.646Z,5.90
2023-04-11T22:12:54.458Z,5.90
2023-04-11T22:15:24.194Z,5.80
2023-04-11T22:17:56.541Z,5.90
2023-04-11T22:20:25.215Z,5.90
2023-04-11T22:22:53.693Z,5.90
2023-04-11T22:25:23.751Z,5.90
2023-04-11T22:27:54.409Z,5.80
2023-04-11T22:30:24.276Z,5.80
2023-04-11T22:32:54.274Z,5.80
2023-04-11T22:35:23.382Z,5.70
2023-04-11T22:37:53.665Z,5.70
2023-04-11T22:40:23.620Z,5.60
2023-04-11T22:42:52.850Z,5.50
2023-04-11T22:45:22.333Z,5.60
2023-04-11T22:47:55.627Z,5.60
2023-04-11T22:50:24.164Z,5.70
2023-04-11T22:52:54.766Z,5.70
2023-04-11T22:55:24.992Z,5.70
2023-04-11T22:57:53.445Z,5.60
2023-04-11T23:00:24.074Z,5.60
2023-04-11T23:02:52.762Z,5.70
2023-04-11T23:05:21.394Z,5.70
2023-04-11T23:07:49.973Z,5.60
2023-04-11T23:10:19.231Z,5.60
2023-04-11T23:12:49.449Z,5.60
2023-04-11T23:15:18.472Z,5.60
2023-04-11T23:17:46.933Z,5.60
2023-04-11T23:20:15.806Z,5.60
2023-04-11T23:22:44.492Z,5.60
2023-04-11T23:25:14.955Z,5.60
2023-04-11T23:27:43.931Z,5.70
2023-04-11T23:30:15.131Z,5.60
2023-04-11T23:32:43.808Z,5.60
2023-04-11T23:35:12.844Z,5.60
2023-04-11T23:37:41.350Z,5.60
2023-04-11T23:40:14.004Z,5.50
2023-04-11T23:42:42.855Z,5.50
2023-04-11T23:45:14.960Z,5.30
2023-04-11T23:47:43.458Z,5.30
2023-04-11T23:50:12.489Z,5.30
2023-04-11T23:52:41.056Z,5.10
2023-04-11T23:55:10.042Z,4.80
2023-04-11T23:57:38.560Z,4.70
